| time (UTC) | temp F | wind direction | speed MPH | gust MPH | rain 1hr in | rain 24hr in | rain mn in | humidity % | barometer mb |
| 20260904215737 | 90 | 187 | 9.0 | 0.0 | 0.00 | 0.05 | 0.03 | 19 | 960.0 |
| 20260904215219 | 89 | 71 | 9.0 | 0.0 | 0.00 | 0.05 | 0.03 | 18 | 960.0 |
| 20260904214719 | 90 | 176 | 10.0 | 0.0 | 0.00 | 0.05 | 0.03 | 18 | 960.0 |
| 20260904214240 | 90 | 145 | 13.0 | 0.0 | 0.00 | 0.05 | 0.03 | 18 | 960.0 |
| 20260904213718 | 90 | 160 | 11.0 | 0.0 | 0.00 | 0.05 | 0.03 | 19 | 960.4 |
| 20260904213217 | 90 | 125 | 9.0 | 0.0 | 0.00 | 0.05 | 0.03 | 17 | 960.4 |
| 20260904212718 | 90 | 165 | 10.0 | 0.0 | 0.00 | 0.05 | 0.03 | 17 | 960.4 |
| 20260904212217 | 90 | 136 | 9.0 | 0.0 | 0.00 | 0.05 | 0.03 | 17 | 960.4 |
| 20260904211716 | 89 | 203 | 10.0 | 0.0 | 0.00 | 0.05 | 0.03 | 17 | 960.4 |
| 20260904211217 | 90 | 150 | 11.0 | 0.0 | 0.00 | 0.05 | 0.03 | 17 | 960.4 |
| 20260904210723 | 88 | 166 | 11.0 | 0.0 | 0.00 | 0.05 | 0.03 | 17 | 960.4 |
| 20260904210217 | 89 | 192 | 13.0 | 0.0 | 0.00 | 0.05 | 0.03 | 18 | 960.4 |
| 20260904205716 | 89 | 123 | 13.0 | 0.0 | 0.00 | 0.05 | 0.03 | 17 | 960.4 |
| 20260904205216 | 88 | 120 | 12.0 | 0.0 | 0.00 | 0.05 | 0.03 | 18 | 960.4 |
| 20260904204716 | 89 | 125 | 10.0 | 0.0 | 0.00 | 0.05 | 0.03 | 16 | 960.4 |
| 20260904204215 | 88 | 133 | 9.0 | 0.0 | 0.00 | 0.05 | 0.03 | 17 | 960.4 |
| 20260904203714 | 89 | 133 | 9.0 | 0.0 | 0.00 | 0.05 | 0.03 | 20 | 960.4 |
| 20260904203216 | 88 | 176 | 8.0 | 0.0 | 0.00 | 0.05 | 0.03 | 21 | 960.4 |
| 20260904202715 | 88 | 126 | 9.0 | 0.0 | 0.00 | 0.05 | 0.03 | 22 | 960.4 |
| 20260904202216 | 88 | 187 | 10.0 | 0.0 | 0.00 | 0.05 | 0.03 | 22 | 960.4 |
| 20260904201714 | 87 | 186 | 10.0 | 0.0 | 0.00 | 0.05 | 0.03 | 25 | 960.7 |
| 20260904201214 | 88 | 160 | 10.0 | 0.0 | 0.00 | 0.05 | 0.03 | 24 | 960.7 |
| 20260904200715 | 86 | 120 | 8.0 | 0.0 | 0.00 | 0.05 | 0.03 | 25 | 960.7 |
| 20260904200213 | 85 | 170 | 15.0 | 0.0 | 0.00 | 0.05 | 0.03 | 22 | 960.7 |
| 20260904195713 | 86 | 109 | 15.0 | 0.0 | 0.00 | 0.05 | 0.03 | 27 | 960.7 |
| 20260904195212 | 87 | 123 | 11.0 | 0.0 | 0.00 | 0.05 | 0.03 | 25 | 960.7 |
| 20260904194714 | 86 | 172 | 11.0 | 0.0 | 0.00 | 0.05 | 0.03 | 27 | 961.1 |
| 20260904194240 | 87 | 160 | 11.0 | 0.0 | 0.00 | 0.05 | 0.03 | 27 | 961.1 |
| 20260904193712 | 86 | 114 | 9.0 | 0.0 | 0.00 | 0.05 | 0.03 | 28 | 961.1 |
| 20260904193213 | 86 | 180 | 8.0 | 0.0 | 0.00 | 0.05 | 0.03 | 29 | 961.1 |
| 20260904192713 | 85 | 135 | 9.0 | 0.0 | 0.00 | 0.05 | 0.03 | 30 | 961.1 |
| 20260904192212 | 84 | 132 | 12.0 | 0.0 | 0.00 | 0.05 | 0.03 | 31 | 961.4 |
| 20260904191713 | 86 | 175 | 13.0 | 0.0 | 0.00 | 0.05 | 0.03 | 32 | 961.4 |
| 20260904191212 | 83 | 142 | 13.0 | 0.0 | 0.00 | 0.05 | 0.03 | 34 | 961.4 |
| 20260904190822 | 84 | 172 | 9.0 | 0.0 | 0.00 | 0.05 | 0.03 | 32 | 961.4 |
| 20260904190238 | 82 | 88 | 10.0 | 0.0 | 0.00 | 0.05 | 0.03 | 34 | 961.4 |
| 20260904185742 | 84 | 123 | 8.0 | 0.0 | 0.00 | 0.05 | 0.03 | 32 | 961.7 |
| 20260904185213 | 83 | 115 | 12.0 | 0.0 | 0.00 | 0.05 | 0.03 | 32 | 961.7 |
| 20260904184715 | 82 | 186 | 10.0 | 0.0 | 0.00 | 0.05 | 0.03 | 33 | 961.7 |
| 20260904184214 | 83 | 135 | 9.0 | 0.0 | 0.00 | 0.05 | 0.03 | 32 | 961.7 |
| 20260904183710 | 82 | 133 | 9.0 | 0.0 | 0.00 | 0.05 | 0.03 | 33 | 961.7 |
| 20260904183215 | 82 | 127 | 10.0 | 0.0 | 0.00 | 0.05 | 0.03 | 33 | 961.7 |
| 20260904182737 | 81 | 140 | 10.0 | 0.0 | 0.00 | 0.05 | 0.03 | 34 | 961.7 |
| 20260904182212 | 81 | 79 | 9.0 | 0.0 | 0.00 | 0.05 | 0.03 | 34 | 961.7 |
| 20260904181741 | 81 | 140 | 9.0 | 0.0 | 0.00 | 0.05 | 0.03 | 35 | 961.7 |
| 20260904181211 | 81 | 185 | 9.0 | 0.0 | 0.00 | 0.05 | 0.03 | 35 | 961.7 |
| 20260904180715 | 80 | 103 | 8.0 | 0.0 | 0.00 | 0.05 | 0.03 | 36 | 961.7 |
| 20260904180212 | 81 | 269 | 7.0 | 0.0 | 0.00 | 0.05 | 0.03 | 36 | 962.1 |
| 20260904175714 | 79 | 128 | 9.0 | 0.0 | 0.00 | 0.05 | 0.03 | 39 | 962.1 |
| 20260904175213 | 78 | 158 | 8.0 | 0.0 | 0.00 | 0.05 | 0.03 | 42 | 962.1 |
| 20260904174711 | 78 | 147 | 7.0 | 0.0 | 0.00 | 0.05 | 0.03 | 42 | 962.1 |
| 20260904174212 | 78 | 165 | 6.0 | 0.0 | 0.00 | 0.05 | 0.03 | 43 | 962.1 |
| 20260904173711 | 76 | 355 | 6.0 | 0.0 | 0.00 | 0.05 | 0.03 | 46 | 962.1 |
| 20260904173211 | 77 | 159 | 6.0 | 0.0 | 0.00 | 0.05 | 0.03 | 48 | 962.1 |
| 20260904172712 | 74 | 356 | 5.0 | 0.0 | 0.00 | 0.05 | 0.03 | 54 | 962.1 |
| 20260904172222 | 74 | 105 | 6.0 | 0.0 | 0.00 | 0.05 | 0.03 | 55 | 962.1 |
| 20260904171719 | 74 | 121 | 5.0 | 0.0 | 0.00 | 0.05 | 0.03 | 54 | 962.1 |
| 20260904171218 | 74 | 298 | 4.0 | 0.0 | 0.00 | 0.05 | 0.03 | 55 | 962.1 |
| 20260904170718 | 74 | 143 | 6.0 | 0.0 | 0.00 | 0.05 | 0.03 | 56 | 962.1 |
| 20260904170217 | 74 | 112 | 5.0 | 0.0 | 0.00 | 0.05 | 0.03 | 56 | 962.1 |
| 20260904165719 | 73 | 52 | 4.0 | 0.0 | 0.00 | 0.05 | 0.03 | 57 | 962.1 |
| 20260904165217 | 73 | 94 | 5.0 | 0.0 | 0.00 | 0.05 | 0.03 | 57 | 962.1 |
| 20260904164718 | 72 | 131 | 5.0 | 0.0 | 0.00 | 0.05 | 0.03 | 58 | 962.1 |
| 20260904164216 | 72 | 170 | 4.0 | 0.0 | 0.00 | 0.05 | 0.03 | 59 | 962.1 |
| 20260904163718 | 70 | 8 | 4.0 | 0.0 | 0.00 | 0.05 | 0.03 | 61 | 961.7 |
| 20260904163216 | 70 | 41 | 6.0 | 0.0 | 0.00 | 0.05 | 0.03 | 61 | 961.7 |
| 20260904162715 | 70 | 68 | 3.0 | 0.0 | 0.00 | 0.05 | 0.03 | 62 | 961.7 |
| 20260904162215 | 69 | 46 | 3.0 | 0.0 | 0.00 | 0.05 | 0.03 | 63 | 961.7 |
| 20260904161716 | 68 | 16 | 3.0 | 0.0 | 0.00 | 0.05 | 0.03 | 65 | 961.7 |
| 20260904161214 | 68 | 355 | 3.0 | 0.0 | 0.03 | 0.05 | 0.03 | 65 | 961.7 |
| 20260904160715 | 68 | 23 | 3.0 | 0.0 | 0.03 | 0.05 | 0.03 | 64 | 961.7 |
| 20260904160215 | 69 | 91 | 3.0 | 0.0 | 0.03 | 0.05 | 0.03 | 65 | 961.7 |
| 20260904155715 | 67 | 103 | 3.0 | 0.0 | 0.03 | 0.05 | 0.03 | 67 | 961.7 |
| 20260904155214 | 67 | 129 | 4.0 | 0.0 | 0.05 | 0.05 | 0.03 | 67 | 961.7 |
| 20260904154714 | 66 | 331 | 4.0 | 0.0 | 0.05 | 0.05 | 0.03 | 68 | 961.7 |
| 20260904154214 | 66 | 16 | 3.0 | 0.0 | 0.05 | 0.05 | 0.03 | 69 | 961.7 |
| 20260904153741 | 64 | 6 | 3.0 | 0.0 | 0.05 | 0.05 | 0.03 | 70 | 961.7 |
| 20260904153214 | 64 | 87 | 3.0 | 0.0 | 0.05 | 0.05 | 0.03 | 71 | 961.7 |
| 20260904152714 | 66 | 7 | 3.0 | 0.0 | 0.05 | 0.05 | 0.03 | 66 | 961.7 |
| 20260904152212 | 64 | 119 | 2.0 | 0.0 | 0.05 | 0.05 | 0.03 | 69 | 961.7 |
| 20260904151714 | 65 | 138 | 3.0 | 0.0 | 0.05 | 0.05 | 0.03 | 66 | 961.7 |
| 20260904151213 | 73 | 186 | 1.0 | 0.0 | 0.02 | 0.02 | 0.00 | 49 | 961.7 |
| 20260904150814 | 74 | 266 | 1.0 | 0.0 | 0.02 | 0.02 | 0.00 | 69 | 961.7 |
| 20260904145737 | 64 | 266 | 3.0 | 0.0 | 0.02 | 0.02 | 0.02 | 69 | 961.7 |
| 20260904145211 | 64 | 144 | 4.0 | 0.0 | 0.00 | 0.00 | 0.00 | 65 | 961.7 |
| 20260904144713 | 64 | 123 | 2.0 | 0.0 | 0.00 | 0.00 | 0.00 | 64 | 961.7 |
| 20260904144238 | 64 | 131 | 2.0 | 0.0 | 0.00 | 0.00 | 0.00 | 64 | 961.7 |
| 20260904143712 | 63 | 156 | 1.0 | 0.0 | 0.00 | 0.00 | 0.00 | 66 | 961.7 |
| 20260904143238 | 62 | 109 | 2.0 | 0.0 | 0.00 | 0.00 | 0.00 | 67 | 961.7 |
| 20260904142716 | 61 | 106 | 2.0 | 0.0 | 0.00 | 0.00 | 0.00 | 68 | 961.7 |
| 20260904142214 | 60 | 104 | 0.0 | 0.0 | 0.00 | 0.00 | 0.00 | 71 | 961.7 |
| 20260904141714 | 59 | 103 | 0.0 | 0.0 | 0.00 | 0.00 | 0.00 | 72 | 961.7 |
| 20260904141242 | 58 | 104 | 1.0 | 0.0 | 0.00 | 0.00 | 0.00 | 76 | 961.4 |
| 20260904140713 | 57 | 103 | 1.0 | 0.0 | 0.00 | 0.00 | 0.00 | 78 | 961.4 |
| 20260904140242 | 56 | 137 | 0.0 | 0.0 | 0.00 | 0.00 | 0.00 | 82 | 961.4 |
| 20260904135714 | 54 | 139 | 0.0 | 0.0 | 0.00 | 0.00 | 0.00 | 88 | 961.1 |
| 20260904135213 | 54 | 331 | 0.0 | 0.0 | 0.00 | 0.00 | 0.00 | 89 | 961.4 |
| 20260904134714 | 54 | 330 | 0.0 | 0.0 | 0.00 | 0.00 | 0.00 | 89 | 961.4 |
| 20260904134228 | 53 | 330 | 0.0 | 0.0 | 0.00 | 0.00 | 0.00 | 90 | 961.4 |
| 20260904133729 | 53 | 288 | 0.0 | 0.0 | 0.00 | 0.00 | 0.00 | 89 | 961.1 |
| 20260904133227 | 53 | 288 | 2.0 | 0.0 | 0.00 | 0.00 | 0.00 | 89 | 961.1 |
| 20260904132727 | 53 | 288 | 2.0 | 0.0 | 0.00 | 0.00 | 0.00 | 90 | 961.4 |
| 20260904132227 | 53 | 302 | 1.0 | 0.0 | 0.00 | 0.00 | 0.00 | 89 | 961.1 |
| 20260904131726 | 54 | 236 | 1.0 | 0.0 | 0.00 | 0.00 | 0.00 | 89 | 961.1 |
| 20260904131226 | 54 | 317 | 0.0 | 0.0 | 0.00 | 0.00 | 0.00 | 88 | 961.1 |
| 20260904130725 | 54 | 308 | 0.0 | 0.0 | 0.00 | 0.00 | 0.00 | 90 | 961.1 |
| 20260904130226 | 54 | 308 | 0.0 | 0.0 | 0.00 | 0.00 | 0.00 | 90 | 961.1 |
| 20260904125724 | 54 | 308 | 0.0 | 0.0 | 0.00 | 0.00 | 0.00 | 90 | 961.1 |
| 20260904125224 | 54 | 308 | 0.0 | 0.0 | 0.00 | 0.00 | 0.00 | 90 | 961.1 |
| 20260904124723 | 54 | 308 | 0.0 | 0.0 | 0.00 | 0.00 | 0.00 | 91 | 961.1 |
| 20260904124223 | 54 | 308 | 0.0 | 0.0 | 0.00 | 0.00 | 0.00 | 91 | 960.7 |
| 20260904123722 | 54 | 308 | 0.0 | 0.0 | 0.00 | 0.00 | 0.00 | 89 | 960.7 |
| 20260904123222 | 54 | 308 | 0.0 | 0.0 | 0.00 | 0.00 | 0.00 | 88 | 960.7 |
| 20260904122723 | 55 | 308 | 0.0 | 0.0 | 0.00 | 0.00 | 0.00 | 89 | 960.7 |
| 20260904122223 | 55 | 308 | 0.0 | 0.0 | 0.00 | 0.00 | 0.00 | 89 | 960.7 |
| 20260904121721 | 55 | 308 | 0.0 | 0.0 | 0.00 | 0.00 | 0.00 | 87 | 960.7 |
| 20260904121220 | 55 | 308 | 0.0 | 0.0 | 0.00 | 0.00 | 0.00 | 86 | 960.7 |
| 20260904120919 | 55 | 308 | 0.0 | 0.0 | 0.00 | 0.00 | 0.00 | 86 | 960.7 |
| 20260904120521 | 55 | 308 | 0.0 | 0.0 | 0.00 | 0.00 | 0.00 | 89 | 960.7 |
| 20260904120018 | 56 | 308 | 0.0 | 0.0 | 0.00 | 0.00 | 0.00 | 85 | 960.7 |
| 20260904115519 | 56 | 308 | 0.0 | 0.0 | 0.00 | 0.00 | 0.00 | 84 | 960.7 |
| 20260904114720 | 56 | 308 | 0.0 | 0.0 | 0.00 | 0.00 | 0.00 | 81 | 961.1 |
| 20260904114219 | 57 | 308 | 0.0 | 0.0 | 0.00 | 0.00 | 0.00 | 80 | 960.7 |
| 20260904113717 | 57 | 308 | 0.0 | 0.0 | 0.00 | 0.00 | 0.00 | 80 | 960.7 |
| 20260904113217 | 58 | 308 | 3.0 | 0.0 | 0.00 | 0.00 | 0.00 | 79 | 960.7 |
| 20260904112716 | 59 | 2 | 2.0 | 0.0 | 0.00 | 0.00 | 0.00 | 76 | 960.7 |
| 20260904112216 | 60 | 3 | 4.0 | 0.0 | 0.00 | 0.00 | 0.00 | 74 | 960.7 |
| 20260904111717 | 60 | 258 | 3.0 | 0.0 | 0.00 | 0.00 | 0.00 | 78 | 960.7 |
| 20260904111217 | 60 | 271 | 3.0 | 0.0 | 0.00 | 0.00 | 0.00 | 78 | 960.7 |
| 20260904110715 | 60 | 255 | 3.0 | 0.0 | 0.00 | 0.00 | 0.00 | 79 | 960.7 |
| 20260904110217 | 60 | 269 | 3.0 | 0.0 | 0.00 | 0.00 | 0.00 | 79 | 960.7 |
| 20260904105714 | 59 | 260 | 3.0 | 0.0 | 0.00 | 0.00 | 0.00 | 79 | 960.7 |
| 20260904105214 | 59 | 234 | 2.0 | 0.0 | 0.00 | 0.00 | 0.00 | 81 | 960.7 |
| 20260904104713 | 59 | 240 | 3.0 | 0.0 | 0.00 | 0.00 | 0.00 | 82 | 960.7 |
| 20260904104215 | 58 | 202 | 3.0 | 0.0 | 0.00 | 0.00 | 0.00 | 82 | 960.7 |
| 20260904103713 | 57 | 230 | 3.0 | 0.0 | 0.00 | 0.00 | 0.00 | 85 | 960.4 |
| 20260904103214 | 56 | 251 | 3.0 | 0.0 | 0.00 | 0.00 | 0.00 | 87 | 960.7 |
| 20260904102713 | 56 | 230 | 1.0 | 0.0 | 0.00 | 0.00 | 0.00 | 85 | 960.4 |
| 20260904102213 | 56 | 169 | 0.0 | 0.0 | 0.00 | 0.00 | 0.00 | 82 | 960.4 |
| 20260904101714 | 56 | 169 | 0.0 | 0.0 | 0.00 | 0.00 | 0.00 | 80 | 960.4 |
| 20260904101212 | 57 | 169 | 0.0 | 0.0 | 0.00 | 0.00 | 0.00 | 81 | 960.4 |
| 20260904100711 | 57 | 169 | 0.0 | 0.0 | 0.00 | 0.00 | 0.00 | 82 | 960.4 |
| 20260904100213 | 57 | 169 | 0.0 | 0.0 | 0.00 | 0.00 | 0.00 | 81 | 960.4 |
| 20260904095711 | 57 | 169 | 2.0 | 0.0 | 0.00 | 0.00 | 0.00 | 80 | 960.4 |
| 20260904095214 | 58 | 169 | 3.0 | 0.0 | 0.00 | 0.00 | 0.00 | 81 | 960.4 |
| 20260904094712 | 57 | 218 | 3.0 | 0.0 | 0.00 | 0.00 | 0.00 | 80 | 960.7 |
| 20260904094214 | 57 | 209 | 2.0 | 0.0 | 0.00 | 0.00 | 0.00 | 80 | 960.4 |
| 20260904093716 | 57 | 174 | 2.0 | 0.0 | 0.00 | 0.00 | 0.00 | 79 | 960.4 |
| 20260904093214 | 58 | 211 | 2.0 | 0.0 | 0.00 | 0.00 | 0.00 | 79 | 960.4 |
| 20260904092714 | 58 | 216 | 2.0 | 0.0 | 0.00 | 0.00 | 0.00 | 78 | 960.4 |
| 20260904092213 | 58 | 306 | 1.0 | 0.0 | 0.00 | 0.00 | 0.00 | 78 | 960.4 |
| 20260904091711 | 58 | 298 | 3.0 | 0.0 | 0.00 | 0.00 | 0.00 | 78 | 960.4 |
| 20260904091212 | 58 | 304 | 2.0 | 0.0 | 0.00 | 0.00 | 0.00 | 77 | 960.4 |
| 20260904090712 | 58 | 336 | 2.0 | 0.0 | 0.00 | 0.00 | 0.00 | 77 | 960.4 |
| 20260904090212 | 58 | 321 | 3.0 | 0.0 | 0.00 | 0.00 | 0.00 | 75 | 960.4 |
| 20260904085713 | 59 | 296 | 3.0 | 0.0 | 0.00 | 0.00 | 0.00 | 73 | 960.4 |
| 20260904085211 | 60 | 344 | 4.0 | 0.0 | 0.00 | 0.00 | 0.00 | 72 | 960.4 |
| 20260904084715 | 60 | 322 | 4.0 | 0.0 | 0.00 | 0.00 | 0.00 | 70 | 960.4 |
| 20260904084213 | 60 | 309 | 2.0 | 0.0 | 0.00 | 0.00 | 0.00 | 70 | 960.7 |
| 20260904083714 | 60 | 295 | 2.0 | 0.0 | 0.00 | 0.00 | 0.00 | 74 | 960.7 |
| 20260904083214 | 60 | 313 | 2.0 | 0.0 | 0.00 | 0.00 | 0.00 | 71 | 960.7 |
| 20260904082727 | 60 | 318 | 3.0 | 0.0 | 0.00 | 0.00 | 0.00 | 71 | 960.7 |
| 20260904082228 | 60 | 333 | 4.0 | 0.0 | 0.00 | 0.00 | 0.00 | 69 | 960.7 |
| 20260904081730 | 60 | 302 | 0.0 | 0.0 | 0.00 | 0.00 | 0.00 | 72 | 960.7 |
| 20260904081226 | 60 | 301 | 0.0 | 0.0 | 0.00 | 0.00 | 0.00 | 71 | 960.7 |
| 20260904080726 | 60 | 301 | 3.0 | 0.0 | 0.00 | 0.00 | 0.00 | 70 | 961.1 |
| 20260904080227 | 61 | 301 | 3.0 | 0.0 | 0.00 | 0.00 | 0.00 | 71 | 961.1 |
| 20260904075726 | 61 | 287 | 2.0 | 0.0 | 0.00 | 0.00 | 0.00 | 70 | 961.1 |
| 20260904075226 | 61 | 288 | 2.0 | 0.0 | 0.00 | 0.00 | 0.00 | 70 | 961.1 |
| 20260904074725 | 61 | 294 | 2.0 | 0.0 | 0.00 | 0.00 | 0.00 | 69 | 961.1 |
| 20260904074225 | 62 | 201 | 1.0 | 0.0 | 0.00 | 0.00 | 0.00 | 68 | 961.1 |
| 20260904073724 | 62 | 186 | 1.0 | 0.0 | 0.00 | 0.00 | 0.00 | 70 | 961.1 |
| 20260904073225 | 63 | 273 | 3.0 | 0.0 | 0.00 | 0.00 | 0.00 | 70 | 961.1 |
| 20260904072724 | 64 | 199 | 3.0 | 0.0 | 0.00 | 0.00 | 0.00 | 72 | 961.1 |
| 20260904072226 | 64 | 262 | 3.0 | 0.0 | 0.00 | 0.00 | 0.00 | 72 | 961.1 |
| 20260904071724 | 64 | 279 | 4.0 | 0.0 | 0.00 | 0.00 | 0.00 | 73 | 960.7 |
| 20260904071223 | 64 | 165 | 4.0 | 0.0 | 0.00 | 0.00 | 0.00 | 73 | 960.7 |
| 20260904070723 | 64 | 274 | 4.0 | 0.0 | 0.00 | 0.00 | 0.00 | 73 | 960.7 |
| 20260904070224 | 64 | 282 | 4.0 | 0.0 | 0.00 | 0.00 | 0.00 | 72 | 960.7 |
| 20260904065724 | 64 | 301 | 3.0 | 0.0 | 0.00 | 0.00 | 0.00 | 71 | 960.7 |
| 20260904065222 | 64 | 223 | 5.0 | 0.0 | 0.00 | 0.00 | 0.00 | 71 | 960.7 |
| 20260904064721 | 64 | 169 | 5.0 | 0.0 | 0.00 | 0.00 | 0.00 | 73 | 960.7 |
| 20260904064225 | 63 | 241 | 3.0 | 0.0 | 0.00 | 0.00 | 0.00 | 72 | 960.7 |
| 20260904063722 | 63 | 242 | 4.0 | 0.0 | 0.00 | 0.00 | 0.00 | 73 | 960.7 |
| 20260904063226 | 63 | 284 | 4.0 | 0.0 | 0.00 | 0.00 | 0.00 | 74 | 960.7 |
| 20260904062723 | 63 | 274 | 4.0 | 0.0 | 0.00 | 0.00 | 0.00 | 74 | 960.7 |
| 20260904062224 | 63 | 219 | 5.0 | 0.0 | 0.00 | 0.00 | 0.00 | 74 | 960.7 |
| 20260904061722 | 63 | 194 | 3.0 | 0.0 | 0.00 | 0.00 | 0.00 | 72 | 960.7 |
| 20260904061220 | 63 | 248 | 4.0 | 0.0 | 0.00 | 0.00 | 0.00 | 72 | 960.7 |
| 20260904060720 | 64 | 195 | 4.0 | 0.0 | 0.00 | 0.00 | 0.00 | 74 | 960.7 |
| 20260904060220 | 64 | 144 | 4.0 | 0.0 | 0.00 | 0.00 | 0.00 | 74 | 960.7 |
| 20260904055718 | 64 | 149 | 3.0 | 0.0 | 0.00 | 0.00 | 0.00 | 73 | 961.1 |
| 20260904055218 | 64 | 204 | 3.0 | 0.0 | 0.00 | 0.00 | 0.00 | 72 | 961.1 |
| 20260904054717 | 64 | 165 | 3.0 | 0.0 | 0.00 | 0.00 | 0.00 | 71 | 961.1 |
| 20260904054217 | 64 | 77 | 3.0 | 0.0 | 0.00 | 0.00 | 0.00 | 70 | 961.1 |
| 20260904053716 | 64 | 307 | 3.0 | 0.0 | 0.00 | 0.00 | 0.00 | 69 | 960.7 |
| 20260904053217 | 65 | 307 | 3.0 | 0.0 | 0.00 | 0.00 | 0.00 | 67 | 960.7 |
| 20260904052716 | 65 | 106 | 7.0 | 0.0 | 0.00 | 0.00 | 0.00 | 67 | 960.7 |
| 20260904052218 | 65 | 105 | 7.0 | 0.0 | 0.00 | 0.00 | 0.00 | 66 | 960.7 |
| 20260904051717 | 66 | 87 | 6.0 | 0.0 | 0.00 | 0.00 | 0.00 | 64 | 960.7 |
| 20260904051216 | 66 | 61 | 4.0 | 0.0 | 0.00 | 0.00 | 0.00 | 63 | 960.7 |
| 20260904050715 | 66 | 95 | 5.0 | 0.0 | 0.00 | 0.00 | 0.00 | 61 | 960.7 |
| 20260904050215 | 66 | 50 | 6.0 | 0.0 | 0.00 | 0.00 | 0.00 | 59 | 960.7 |
| 20260904045714 | 66 | 3 | 7.0 | 0.0 | 0.00 | 0.00 | 0.00 | 58 | 960.7 |
| 20260904045213 | 66 | 71 | 7.0 | 0.0 | 0.00 | 0.00 | 0.00 | 58 | 960.7 |
| 20260904044714 | 67 | 151 | 8.0 | 0.0 | 0.00 | 0.00 | 0.00 | 57 | 960.7 |
| 20260904044213 | 67 | 87 | 12.0 | 0.0 | 0.00 | 0.00 | 0.00 | 56 | 960.7 |
| 20260904043714 | 67 | 183 | 12.0 | 0.0 | 0.00 | 0.00 | 0.00 | 55 | 960.4 |
| 20260904043213 | 67 | 84 | 16.0 | 0.0 | 0.00 | 0.00 | 0.00 | 56 | 960.7 |
| 20260904042714 | 67 | 136 | 14.0 | 0.0 | 0.00 | 0.00 | 0.00 | 57 | 960.4 |
| 20260904042213 | 67 | 114 | 10.0 | 0.0 | 0.00 | 0.00 | 0.00 | 57 | 960.4 |
| 20260904041714 | 68 | 22 | 8.0 | 0.0 | 0.00 | 0.00 | 0.00 | 57 | 960.4 |
| 20260904041211 | 68 | 129 | 10.0 | 0.0 | 0.00 | 0.00 | 0.00 | 56 | 960.4 |
| 20260904040711 | 68 | 52 | 15.0 | 0.0 | 0.00 | 0.00 | 0.00 | 56 | 960.4 |
| 20260904040214 | 68 | 102 | 15.0 | 0.0 | 0.00 | 0.00 | 0.00 | 55 | 960.4 |
| 20260904035643 | 69 | 128 | 12.0 | 0.0 | 0.00 | 0.00 | 0.00 | 54 | 960.4 |
| 20260904035214 | 69 | 49 | 10.0 | 0.0 | 0.00 | 0.00 | 0.00 | 52 | 960.4 |
| 20260904034714 | 69 | 131 | 11.0 | 0.0 | 0.00 | 0.00 | 0.00 | 51 | 960.4 |
| 20260904034213 | 70 | 123 | 11.0 | 0.0 | 0.00 | 0.00 | 0.00 | 51 | 960.4 |
| 20260904033711 | 70 | 131 | 10.0 | 0.0 | 0.00 | 0.00 | 0.00 | 49 | 960.4 |
| 20260904033213 | 70 | 142 | 9.0 | 0.0 | 0.00 | 0.00 | 0.00 | 48 | 960.0 |
| 20260904032710 | 70 | 337 | 10.0 | 0.0 | 0.00 | 0.00 | 0.00 | 48 | 960.0 |
| 20260904032211 | 70 | 128 | 9.0 | 0.0 | 0.00 | 0.00 | 0.00 | 48 | 960.0 |
| 20260904031713 | 70 | 129 | 8.0 | 0.0 | 0.00 | 0.00 | 0.00 | 48 | 960.0 |
| 20260904031212 | 70 | 144 | 7.0 | 0.0 | 0.00 | 0.00 | 0.00 | 48 | 960.0 |
| 20260904030711 | 70 | 89 | 4.0 | 0.0 | 0.00 | 0.00 | 0.00 | 48 | 960.0 |
| 20260904030211 | 71 | 130 | 4.0 | 0.0 | 0.00 | 0.00 | 0.00 | 47 | 960.4 |
| 20260904025710 | 71 | 96 | 5.0 | 0.0 | 0.00 | 0.00 | 0.00 | 47 | 960.0 |
| 20260904025214 | 71 | 206 | 8.0 | 0.0 | 0.00 | 0.00 | 0.00 | 46 | 960.0 |
| 20260904024713 | 72 | 92 | 8.0 | 0.0 | 0.00 | 0.00 | 0.00 | 43 | 960.0 |
| 20260904024211 | 72 | 141 | 7.0 | 0.0 | 0.00 | 0.00 | 0.00 | 43 | 960.0 |
| 20260904023744 | 72 | 76 | 6.0 | 0.0 | 0.00 | 0.00 | 0.00 | 43 | 960.0 |
| 20260904023243 | 73 | 136 | 9.0 | 0.0 | 0.00 | 0.00 | 0.00 | 42 | 959.7 |
| 20260904022742 | 73 | 130 | 10.0 | 0.0 | 0.00 | 0.00 | 0.00 | 41 | 959.7 |
| 20260904022243 | 73 | 138 | 10.0 | 0.0 | 0.00 | 0.00 | 0.00 | 40 | 959.4 |
| 20260904021742 | 74 | 103 | 13.0 | 0.0 | 0.00 | 0.00 | 0.00 | 39 | 959.7 |
| 20260904021241 | 74 | 99 | 15.0 | 0.0 | 0.00 | 0.00 | 0.00 | 40 | 959.4 |
| 20260904020741 | 74 | 143 | 16.0 | 0.0 | 0.00 | 0.00 | 0.00 | 42 | 959.4 |
| 20260904020240 | 74 | 140 | 17.0 | 0.0 | 0.00 | 0.00 | 0.00 | 39 | 959.7 |
| 20260904015740 | 75 | 112 | 17.0 | 0.0 | 0.00 | 0.00 | 0.00 | 38 | 959.4 |
| 20260904015241 | 75 | 84 | 18.0 | 0.0 | 0.00 | 0.00 | 0.00 | 37 | 959.4 |
| 20260904014739 | 75 | 97 | 17.0 | 0.0 | 0.00 | 0.00 | 0.00 | 37 | 959.4 |
| 20260904014240 | 76 | 71 | 16.0 | 0.0 | 0.00 | 0.00 | 0.00 | 36 | 959.4 |
| 20260904013638 | 76 | 127 | 13.0 | 0.0 | 0.00 | 0.00 | 0.00 | 35 | 959.7 |
| 20260904013239 | 76 | 150 | 13.0 | 0.0 | 0.00 | 0.00 | 0.00 | 35 | 959.7 |
| 20260904012738 | 77 | 131 | 18.0 | 0.0 | 0.00 | 0.00 | 0.00 | 33 | 959.4 |
| 20260904012238 | 77 | 77 | 19.0 | 0.0 | 0.00 | 0.00 | 0.00 | 32 | 959.4 |
| 20260904011738 | 78 | 86 | 16.0 | 0.0 | 0.00 | 0.00 | 0.00 | 32 | 959.4 |
| 20260904011238 | 78 | 67 | 18.0 | 0.0 | 0.00 | 0.00 | 0.00 | 31 | 959.4 |
| 20260904010738 | 78 | 242 | 18.0 | 0.0 | 0.00 | 0.00 | 0.00 | 30 | 959.4 |
| 20260904010141 | 79 | 76 | 16.0 | 0.0 | 0.00 | 0.00 | 0.00 | 31 | 959.4 |
| 20260904005738 | 79 | 144 | 11.0 | 0.0 | 0.00 | 0.00 | 0.00 | 30 | 959.4 |
| 20260904005236 | 80 | 169 | 11.0 | 0.0 | 0.00 | 0.00 | 0.00 | 32 | 959.4 |
| 20260904004737 | 80 | 55 | 13.0 | 0.0 | 0.00 | 0.00 | 0.00 | 29 | 959.0 |
| 20260904004235 | 80 | 43 | 14.0 | 0.0 | 0.00 | 0.00 | 0.00 | 30 | 959.0 |
| 20260904003713 | 81 | 137 | 15.0 | 0.0 | 0.00 | 0.00 | 0.00 | 29 | 959.0 |
| 20260904003234 | 81 | 110 | 14.0 | 0.0 | 0.00 | 0.00 | 0.00 | 27 | 959.0 |
| 20260904002634 | 81 | 130 | 20.0 | 0.0 | 0.00 | 0.00 | 0.00 | 26 | 959.0 |
| 20260904002235 | 82 | 97 | 15.0 | 0.0 | 0.00 | 0.00 | 0.00 | 24 | 959.0 |
| 20260904001733 | 82 | 142 | 15.0 | 0.0 | 0.00 | 0.00 | 0.00 | 25 | 959.0 |
| 20260904001234 | 83 | 163 | 15.0 | 0.0 | 0.00 | 0.00 | 0.00 | 26 | 959.0 |
| 20260904000733 | 83 | 310 | 15.0 | 0.0 | 0.00 | 0.00 | 0.00 | 25 | 959.0 |
| 20260904000233 | 84 | 141 | 15.0 | 0.0 | 0.00 | 0.00 | 0.00 | 28 | 959.0 |
| 20260903235731 | 84 | 142 | 15.0 | 0.0 | 0.00 | 0.00 | 0.00 | 27 | 959.0 |
| 20260903235231 | 85 | 143 | 13.0 | 0.0 | 0.00 | 0.00 | 0.00 | 28 | 959.0 |
| 20260903234731 | 85 | 148 | 13.0 | 0.0 | 0.00 | 0.00 | 0.00 | 28 | 959.0 |
| 20260903234231 | 85 | 60 | 12.0 | 0.0 | 0.00 | 0.00 | 0.00 | 27 | 959.0 |
| 20260903233731 | 86 | 158 | 19.0 | 0.0 | 0.00 | 0.00 | 0.00 | 27 | 958.7 |
| 20260903233229 | 86 | 130 | 14.0 | 0.0 | 0.00 | 0.00 | 0.00 | 27 | 958.7 |
| 20260903232730 | 87 | 127 | 15.0 | 0.0 | 0.00 | 0.00 | 0.00 | 27 | 959.0 |
| 20260903232229 | 86 | 138 | 16.0 | 0.0 | 0.00 | 0.00 | 0.00 | 27 | 959.0 |
| 20260903231640 | 86 | 11 | 15.0 | 0.0 | 0.00 | 0.00 | 0.00 | 27 | 959.0 |
| 20260903231228 | 87 | 148 | 13.0 | 0.0 | 0.00 | 0.00 | 0.00 | 27 | 959.0 |
| 20260903230729 | 87 | 147 | 13.0 | 0.0 | 0.00 | 0.00 | 0.00 | 27 | 959.0 |
| 20260903230227 | 87 | 85 | 13.0 | 0.0 | 0.00 | 0.00 | 0.00 | 27 | 959.0 |
| 20260903225729 | 88 | 124 | 13.0 | 0.0 | 0.00 | 0.00 | 0.00 | 28 | 959.0 |
| 20260903225227 | 88 | 139 | 13.0 | 0.0 | 0.00 | 0.00 | 0.00 | 27 | 959.0 |
| 20260903224727 | 88 | 121 | 13.0 | 0.0 | 0.00 | 0.00 | 0.00 | 26 | 959.0 |
| 20260903224140 | 89 | 118 | 11.0 | 0.0 | 0.00 | 0.00 | 0.00 | 26 | 959.0 |
| 20260903223726 | 90 | 145 | 10.0 | 0.0 | 0.00 | 0.00 | 0.00 | 25 | 959.0 |
| 20260903223225 | 89 | 191 | 11.0 | 0.0 | 0.00 | 0.00 | 0.00 | 25 | 959.4 |
| 20260903222725 | 89 | 119 | 11.0 | 0.0 | 0.00 | 0.00 | 0.00 | 26 | 959.0 |
| 20260903222226 | 89 | 150 | 11.0 | 0.0 | 0.00 | 0.00 | 0.00 | 25 | 959.4 |
| 20260903221725 | 89 | 166 | 11.0 | 0.0 | 0.00 | 0.00 | 0.00 | 25 | 959.4 |
| 20260903221223 | 90 | 80 | 11.0 | 0.0 | 0.00 | 0.00 | 0.00 | 25 | 959.4 |
| 20260903220724 | 90 | 150 | 12.0 | 0.0 | 0.00 | 0.00 | 0.00 | 25 | 959.4 |
| 20260903220223 | 90 | 176 | 12.0 | 0.0 | 0.00 | 0.00 | 0.00 | 24 | 959.4 |